Time;durP1;ratioP1;P1;durP2;ratioP2;P2;SDS_P1;SDS_P2;PMS_P1;PMS_P2;Temp;Humidity;BMP_temperature;BMP_pressure;BME280_temperature;BME280_humidity;BME280_pressure;Samples;Min_cycle;Max_cycle;Signal;HPM_P1;HPM_P2
2023/01/13 00:00:43;;;;;;;;;0.00;0.00;;;;;10.53;100.00;100873.31;4995415;28;45422;-81
2023/01/13 00:03:08;;;;;;;;;1.00;0.00;;;;;10.46;100.00;100859.63;4995172;28;45380;-81
2023/01/13 00:05:34;;;;;;;;;0.00;0.00;;;;;10.44;100.00;100864.84;4995040;28;50894;-81
2023/01/13 00:07:59;;;;;;;;;1.00;0.00;;;;;10.43;100.00;100857.09;5027711;28;45304;-80
2023/01/13 00:10:25;;;;;;;;;0.00;0.00;;;;;10.44;100.00;100859.66;5030674;28;45257;-80
2023/01/13 00:12:52;;;;;;;;;0.00;0.00;;;;;10.50;100.00;100856.03;4998761;28;45301;-80
2023/01/13 00:15:17;;;;;;;;;0.25;0.00;;;;;10.54;100.00;100851.59;4998370;28;46670;-80
2023/01/13 00:17:42;;;;;;;;;0.00;0.00;;;;;10.60;100.00;100851.41;4997716;28;54471;-80
2023/01/13 00:20:09;;;;;;;;;0.00;0.00;;;;;10.62;100.00;100853.09;4998482;28;45389;-81
2023/01/13 00:22:34;;;;;;;;;0.00;0.00;;;;;10.60;100.00;100848.81;4998472;28;45520;-80
2023/01/13 00:25:00;;;;;;;;;1.00;0.00;;;;;10.57;100.00;100852.38;4998222;28;46365;-80
2023/01/13 00:27:26;;;;;;;;;0.00;0.00;;;;;10.54;100.00;100849.00;5030201;28;45318;-81
2023/01/13 00:29:52;;;;;;;;;0.00;0.00;;;;;10.53;100.00;100850.75;4998272;28;45222;-80
2023/01/13 00:32:17;;;;;;;;;0.00;0.00;;;;;10.52;100.00;100851.63;4998137;28;45393;-80
2023/01/13 00:34:42;;;;;;;;;0.00;0.00;;;;;10.49;100.00;100856.06;4997848;28;56366;-80
2023/01/13 00:37:11;;;;;;;;;0.00;0.00;;;;;10.49;100.00;100849.09;4996879;28;46182;-80
2023/01/13 00:39:37;;;;;;;;;0.00;0.00;;;;;10.45;100.00;100861.34;4998428;28;45503;-80
2023/01/13 00:44:46;;;;;;;;;0.00;0.00;;;;;10.41;100.00;100840.66;4998001;28;45472;-80
2023/01/13 00:47:12;;;;;;;;;0.00;0.00;;;;;10.36;100.00;100834.72;4997206;28;55148;-80
2023/01/13 00:49:37;;;;;;;;;0.00;0.00;;;;;10.34;100.00;100828.69;4998171;28;45304;-80
2023/01/13 00:52:02;;;;;;;;;0.00;0.00;;;;;10.28;100.00;100834.88;5029667;28;53562;-81
2023/01/13 00:54:28;;;;;;;;;0.00;0.00;;;;;10.25;100.00;100842.75;4997952;28;46238;-80
2023/01/13 00:56:53;;;;;;;;;0.75;0.00;;;;;10.23;100.00;100835.03;5029846;28;45472;-81
2023/01/13 00:59:18;;;;;;;;;0.00;0.00;;;;;10.21;100.00;100839.38;5028990;28;64233;-81
2023/01/13 01:01:44;;;;;;;;;0.00;0.00;;;;;10.20;100.00;100826.44;5028882;28;64259;-80
2023/01/13 01:04:10;;;;;;;;;0.00;0.00;;;;;10.18;100.00;100842.09;4997064;28;66379;-81
2023/01/13 01:06:35;;;;;;;;;0.75;0.00;;;;;10.18;100.00;100843.84;4997703;28;45473;-81
2023/01/13 01:09:01;;;;;;;;;0.00;0.00;;;;;10.24;100.00;100849.72;4997227;28;58850;-81
2023/01/13 01:11:28;;;;;;;;;0.00;0.00;;;;;10.26;100.00;100836.69;5029519;28;45505;-81
2023/01/13 01:13:56;;;;;;;;;0.00;0.00;;;;;10.23;100.00;100847.16;4997833;28;46334;-81
2023/01/13 01:16:23;;;;;;;;;0.00;0.00;;;;;10.20;100.00;100837.69;4997159;28;45683;-81
2023/01/13 01:18:49;;;;;;;;;0.25;0.00;;;;;10.19;100.00;100835.97;4996478;28;45366;-81
2023/01/13 01:21:15;;;;;;;;;0.00;0.00;;;;;10.18;100.00;100826.47;4996734;28;45440;-81
2023/01/13 01:23:42;;;;;;;;;0.00;0.00;;;;;10.18;100.00;100823.03;4997336;28;46727;-81
2023/01/13 01:26:10;;;;;;;;;0.00;0.00;;;;;10.18;100.00;100830.84;4997103;28;45349;-80
2023/01/13 01:28:36;;;;;;;;;0.00;0.00;;;;;10.18;100.00;100823.03;4997776;28;45593;-81
2023/01/13 01:31:12;;;;;;;;;0.00;0.00;;;;;10.20;100.00;100824.69;5029109;28;45538;-81
2023/01/13 01:33:39;;;;;;;;;2.25;0.00;;;;;10.21;100.00;100822.94;4996145;28;47187;-81
2023/01/13 01:36:05;;;;;;;;;0.75;0.00;;;;;10.20;100.00;100821.25;5028600;28;45337;-81
2023/01/13 01:38:31;;;;;;;;;2.50;0.00;;;;;10.16;100.00;100828.25;4997593;28;45294;-81
2023/01/13 01:40:57;;;;;;;;;2.00;0.00;;;;;10.15;100.00;100841.31;5028592;28;60770;-81
2023/01/13 01:44:04;;;;;;;;;0.00;0.00;;;;;10.14;100.00;100840.47;5028717;28;47233;-82
2023/01/13 01:46:33;;;;;;;;;0.00;0.00;;;;;10.10;100.00;100841.41;4997294;28;45507;-81
2023/01/13 01:49:02;;;;;;;;;0.50;0.00;;;;;10.06;100.00;100829.38;4996018;28;45499;-81
2023/01/13 01:51:31;;;;;;;;;0.00;0.00;;;;;10.03;100.00;100827.72;4997084;28;45456;-81
2023/01/13 01:53:58;;;;;;;;;0.75;0.00;;;;;9.99;100.00;100828.69;4997056;28;46238;-81
2023/01/13 01:56:23;;;;;;;;;0.00;0.00;;;;;9.95;100.00;100834.84;4996975;28;45716;-81
2023/01/13 01:58:50;;;;;;;;;0.00;0.00;;;;;9.94;100.00;100837.50;5028051;28;60575;-81
2023/01/13 02:01:15;;;;;;;;;0.00;0.00;;;;;9.91;100.00;100845.38;5028748;28;45297;-81
2023/01/13 02:03:45;;;;;;;;;1.00;0.00;;;;;9.89;100.00;100858.41;4995561;28;45352;-81
2023/01/13 02:06:11;;;;;;;;;0.00;0.00;;;;;9.83;100.00;100850.75;5028578;28;45274;-82
2023/01/13 02:08:38;;;;;;;;;0.00;0.00;;;;;9.81;100.00;100852.56;5028924;28;45344;-81
2023/01/13 02:11:03;;;;;;;;;0.00;0.00;;;;;9.79;100.00;100862.13;5028750;28;45408;-81
2023/01/13 02:13:29;;;;;;;;;0.00;0.00;;;;;9.78;100.00;100866.44;4996370;28;47127;-81
2023/01/13 02:16:01;;;;;;;;;0.00;0.00;;;;;9.76;100.00;100872.59;5028056;28;45553;-81
2023/01/13 02:18:50;;;;;;;;;1.00;0.00;;;;;9.73;100.00;100881.28;4996963;28;45554;-81
2023/01/13 02:21:40;;;;;;;;;1.00;0.00;;;;;9.70;100.00;100878.78;4996701;28;45544;-81
2023/01/13 02:27:49;;;;;;;;;0.00;0.00;;;;;9.62;100.00;100868.56;4985446;28;45557;-81
2023/01/13 02:33:19;;;;;;;;;1.00;0.00;;;;;9.57;100.00;100873.00;4974644;28;45331;-81
2023/01/13 02:35:57;;;;;;;;;0.00;0.00;;;;;9.56;100.00;100875.63;4958296;28;46423;-81
2023/01/13 02:38:34;;;;;;;;;0.00;0.00;;;;;9.54;100.00;100878.28;4974456;28;45716;-81
2023/01/13 02:44:06;;;;;;;;;0.00;0.00;;;;;9.49;100.00;100867.16;4941129;28;45407;-81
2023/01/13 02:46:45;;;;;;;;;0.00;0.00;;;;;9.49;100.00;100867.16;4969929;28;46492;-81
2023/01/13 02:49:18;;;;;;;;;3.00;0.00;;;;;9.49;100.00;100873.19;4971047;28;45661;-81
2023/01/13 02:51:46;;;;;;;;;0.00;0.00;;;;;9.50;100.00;100880.06;4955036;28;45479;-81
2023/01/13 02:54:16;;;;;;;;;0.00;0.00;;;;;9.50;100.00;100889.63;4971287;28;45355;-81
2023/01/13 02:56:43;;;;;;;;;1.00;0.00;;;;;9.48;100.00;100884.47;4970529;28;47881;-80
2023/01/13 02:59:09;;;;;;;;;2.50;0.00;;;;;9.51;100.00;100883.56;4974691;28;45409;-80
2023/01/13 03:01:34;;;;;;;;;0.00;0.00;;;;;9.53;100.00;100886.97;4976178;28;53795;-81
2023/01/13 03:04:13;;;;;;;;;0.00;0.00;;;;;9.56;100.00;100893.84;4990825;28;65861;-81
2023/01/13 03:06:59;;;;;;;;;0.50;0.50;;;;;9.59;100.00;100891.19;4991383;28;46666;-81
2023/01/13 03:09:32;;;;;;;;;1.00;0.00;;;;;9.60;100.00;100896.34;4991434;28;45352;-81
2023/01/13 03:12:11;;;;;;;;;1.00;0.00;;;;;9.63;100.00;100898.84;4991324;28;45477;-81
2023/01/13 03:14:41;;;;;;;;;0.00;0.00;;;;;9.67;100.00;100899.63;4993514;28;45283;-81
2023/01/13 03:17:11;;;;;;;;;1.50;0.00;;;;;9.68;100.00;100899.63;4994664;28;47034;-81
2023/01/13 03:19:47;;;;;;;;;1.00;0.75;;;;;9.73;100.00;100896.03;4994934;28;45782;-81
2023/01/13 03:22:22;;;;;;;;;0.00;0.00;;;;;9.77;100.00;100901.16;4996052;28;45317;-81
2023/01/13 03:25:00;;;;;;;;;0.00;0.00;;;;;9.80;100.00;100908.88;4994628;28;45362;-80
2023/01/13 03:27:36;;;;;;;;;0.25;0.00;;;;;9.84;100.00;100907.06;4994115;28;45369;-81
2023/01/13 03:30:07;;;;;;;;;1.50;0.00;;;;;9.83;100.00;100901.00;4994516;28;45377;-82
2023/01/13 03:32:41;;;;;;;;;2.25;0.00;;;;;9.83;100.00;100908.81;4994689;28;45240;-81
2023/01/13 03:35:21;;;;;;;;;1.00;0.00;;;;;9.84;100.00;100909.66;4978248;28;45459;-81
2023/01/13 03:37:51;;;;;;;;;0.00;0.00;;;;;9.86;100.00;100906.16;4994405;28;47365;-82
2023/01/13 03:40:20;;;;;;;;;0.00;0.00;;;;;9.89;100.00;100911.25;4994076;28;45740;-81
2023/01/13 03:45:38;;;;;;;;;0.00;0.00;;;;;9.93;100.00;100903.38;5024446;28;45425;-80
2023/01/13 03:48:07;;;;;;;;;0.00;0.00;;;;;9.97;100.00;100899.81;4997982;28;65882;-81
2023/01/13 03:50:37;;;;;;;;;0.00;0.00;;;;;9.95;100.00;100909.41;4997711;28;45698;-82
2023/01/13 03:53:10;;;;;;;;;0.00;0.00;;;;;9.96;100.00;100913.72;4997841;28;45524;-81
2023/01/13 03:55:39;;;;;;;;;0.00;0.00;;;;;9.98;100.00;100905.00;4998919;28;45353;-81
2023/01/13 03:58:13;;;;;;;;;0.00;0.00;;;;;9.99;100.00;100901.50;4997584;28;47367;-81
2023/01/13 04:00:50;;;;;;;;;0.75;0.00;;;;;10.01;100.00;100901.44;4997521;28;45343;-81
2023/01/13 04:03:28;;;;;;;;;3.00;0.00;;;;;10.05;100.00;100897.91;4997833;28;45408;-81
2023/01/13 04:05:58;;;;;;;;;0.00;0.00;;;;;10.07;100.00;100898.72;4998742;28;45479;-81
2023/01/13 04:08:26;;;;;;;;;0.00;0.00;;;;;10.07;100.00;100902.16;4995288;28;46709;-81
2023/01/13 04:11:04;;;;;;;;;1.25;0.00;;;;;10.07;100.00;100920.38;4997021;28;45828;-82
2023/01/13 04:13:34;;;;;;;;;0.50;0.00;;;;;10.03;100.00;100921.34;4997387;28;45385;-82
2023/01/13 04:16:00;;;;;;;;;2.00;0.00;;;;;10.00;100.00;100925.75;4997353;28;45545;-82
2023/01/13 04:18:27;;;;;;;;;0.00;0.00;;;;;9.97;100.00;100920.63;5013751;28;47205;-82
2023/01/13 04:20:55;;;;;;;;;0.00;0.00;;;;;9.95;100.00;100925.00;4998471;28;45454;-82
2023/01/13 04:23:20;;;;;;;;;0.00;0.00;;;;;9.94;100.00;100929.38;4996986;28;45349;-81
2023/01/13 04:25:47;;;;;;;;;0.25;0.00;;;;;9.91;100.00;100938.97;5013458;28;45285;-82
2023/01/13 04:28:13;;;;;;;;;0.00;0.00;;;;;9.87;100.00;100935.59;4998216;28;46388;-82
2023/01/13 04:30:39;;;;;;;;;1.00;0.00;;;;;9.83;100.00;100945.22;4998343;28;45584;-82
2023/01/13 04:33:04;;;;;;;;;1.00;0.00;;;;;9.78;100.00;100941.84;4998531;28;45397;-81
2023/01/13 04:35:30;;;;;;;;;1.00;0.00;;;;;9.75;100.00;100949.72;4998336;28;45518;-81
2023/01/13 04:37:56;;;;;;;;;0.75;0.00;;;;;9.76;100.00;100948.81;4996511;28;45689;-82
2023/01/13 04:40:22;;;;;;;;;1.00;0.00;;;;;9.76;100.00;100940.19;4996425;28;56598;-82
2023/01/13 04:42:47;;;;;;;;;0.00;0.00;;;;;9.74;100.00;100948.00;4997573;28;56349;-83
2023/01/13 04:45:13;;;;;;;;;1.00;0.00;;;;;9.77;100.00;100947.06;4997546;28;57102;-83
2023/01/13 04:47:39;;;;;;;;;0.50;0.00;;;;;9.78;100.00;100949.66;4998000;28;47139;-82
2023/01/13 04:50:04;;;;;;;;;0.00;0.00;;;;;9.76;100.00;100954.03;5029651;28;45887;-82
2023/01/13 04:52:30;;;;;;;;;1.00;0.00;;;;;9.72;100.00;100942.00;4996701;28;45350;-82
2023/01/13 04:54:55;;;;;;;;;0.00;0.00;;;;;9.68;100.00;100950.75;5029219;28;60746;-82
2023/01/13 04:57:20;;;;;;;;;1.00;0.00;;;;;9.64;100.00;100952.56;5029339;28;60890;-82
2023/01/13 04:59:46;;;;;;;;;0.00;0.00;;;;;9.60;100.00;100947.44;4997533;28;53657;-82
2023/01/13 05:02:18;;;;;;;;;0.00;0.00;;;;;9.58;100.00;100951.81;5013161;28;45374;-83
2023/01/13 05:04:45;;;;;;;;;0.25;0.00;;;;;9.55;100.00;100968.34;4997953;28;45491;-82
2023/01/13 05:07:10;;;;;;;;;0.25;0.00;;;;;9.52;100.00;100958.00;5029178;28;47293;-83
2023/01/13 05:09:35;;;;;;;;;1.50;0.00;;;;;9.49;100.00;100961.53;5028629;28;69505;-83
2023/01/13 05:17:30;;;;;;;;;2.25;0.00;;;;;9.43;100.00;100961.63;4977968;28;45558;-82
2023/01/13 05:19:55;;;;;;;;;1.50;0.00;;;;;9.40;100.00;100969.53;4988226;28;45733;-83
2023/01/13 05:25:27;;;;;;;;;0.00;0.00;;;;;9.36;100.00;100977.41;4997540;28;45313;-83
2023/01/13 05:27:56;;;;;;;;;0.00;0.00;;;;;9.35;100.00;100992.13;4997554;28;46228;-82
2023/01/13 05:30:26;;;;;;;;;0.75;0.00;;;;;9.33;100.00;100993.06;4997677;28;45159;-83
2023/01/13 05:32:51;;;;;;;;;0.00;0.00;;;;;9.32;100.00;101004.31;4997580;28;45376;-82
2023/01/13 05:35:16;;;;;;;;;0.00;0.00;;;;;9.29;100.00;101010.44;4996875;28;59064;-83
2023/01/13 05:37:43;;;;;;;;;1.00;0.00;;;;;9.27;100.00;101012.22;4996937;28;46372;-83
2023/01/13 05:43:24;;;;;;;;;1.00;1.00;;;;;9.22;100.00;101011.44;4997209;28;45679;-83
2023/01/13 05:45:49;;;;;;;;;1.50;0.50;;;;;9.20;100.00;101006.28;5024543;28;45434;-83
2023/01/13 05:48:15;;;;;;;;;0.00;0.00;;;;;9.17;100.00;101010.66;4996971;28;46940;-83
2023/01/13 05:50:40;;;;;;;;;1.00;0.00;;;;;9.14;100.00;101009.00;4996825;28;45607;-83
2023/01/13 05:53:06;;;;;;;;;0.75;0.00;;;;;9.12;100.00;101013.38;5029149;28;45313;-83
2023/01/13 05:55:31;;;;;;;;;2.00;1.00;;;;;9.13;100.00;101017.66;4997223;28;45206;-83
2023/01/13 05:57:56;;;;;;;;;0.00;0.00;;;;;9.11;100.00;101011.63;5028400;28;59481;-83
2023/01/13 06:00:22;;;;;;;;;0.75;0.00;;;;;9.11;100.00;101014.25;5011483;28;63245;-82
2023/01/13 06:02:48;;;;;;;;;0.50;0.00;;;;;9.09;100.00;101014.25;4997062;28;45266;-83
2023/01/13 06:05:13;;;;;;;;;0.00;0.00;;;;;9.07;100.00;101029.00;4996540;28;45317;-83
2023/01/13 06:07:38;;;;;;;;;0.00;0.00;;;;;9.05;100.00;101027.34;4996183;28;45290;-82
2023/01/13 06:10:04;;;;;;;;;0.50;0.00;;;;;9.01;100.00;101042.13;4995813;28;67860;-83
2023/01/13 06:12:29;;;;;;;;;0.00;0.00;;;;;9.02;100.00;101046.41;4995571;28;45377;-82
2023/01/13 06:14:55;;;;;;;;;0.50;0.00;;;;;9.01;100.00;101044.72;4996603;28;48927;-82
2023/01/13 06:17:20;;;;;;;;;1.25;0.00;;;;;9.00;100.00;101048.19;5027870;28;65554;-82
2023/01/13 06:19:46;;;;;;;;;0.00;0.00;;;;;8.98;100.00;101059.50;5028343;28;45423;-83
2023/01/13 06:22:17;;;;;;;;;0.00;0.00;;;;;8.95;100.00;101062.97;5028683;28;45308;-83
2023/01/13 06:24:44;;;;;;;;;0.50;0.00;;;;;8.94;100.00;101058.69;4996617;28;45376;-83
2023/01/13 06:27:11;;;;;;;;;1.00;0.00;;;;;8.90;100.00;101068.25;4995380;28;46360;-83
2023/01/13 06:29:37;;;;;;;;;0.00;0.00;;;;;8.91;100.00;101074.31;4996615;28;45426;-83
2023/01/13 06:32:05;;;;;;;;;0.00;0.00;;;;;8.89;100.00;101073.47;5028660;28;45406;-84
2023/01/13 06:34:33;;;;;;;;;1.00;0.00;;;;;8.90;100.00;101075.19;5011702;28;45174;-83
2023/01/13 06:36:58;;;;;;;;;1.00;0.00;;;;;8.89;100.00;101083.84;4995071;28;47416;-83
2023/01/13 06:39:26;;;;;;;;;2.25;0.00;;;;;8.89;100.00;101076.91;5027360;28;67574;-83
2023/01/13 06:44:38;;;;;;;;;0.50;0.25;;;;;8.86;100.00;101092.56;4996611;28;45297;-84
2023/01/13 06:47:03;;;;;;;;;0.50;0.00;;;;;8.88;100.00;101095.13;5028209;28;46747;-84
2023/01/13 06:49:29;;;;;;;;;2.50;0.00;;;;;8.88;100.00;101089.94;5027027;28;59985;-83
2023/01/13 06:51:54;;;;;;;;;0.50;0.00;;;;;8.88;100.00;101083.00;4996537;28;45535;-83
2023/01/13 06:54:19;;;;;;;;;0.50;0.50;;;;;8.88;100.00;101102.94;4996308;28;45449;-83
2023/01/13 06:56:45;;;;;;;;;1.50;0.00;;;;;8.86;100.00;101102.94;4995582;28;63651;-84
2023/01/13 06:59:10;;;;;;;;;0.25;0.00;;;;;8.90;100.00;101104.59;5027324;28;62336;-83
2023/01/13 07:01:35;;;;;;;;;2.00;0.75;;;;;8.96;100.00;101093.25;5028011;28;45368;-84
2023/01/13 07:04:01;;;;;;;;;0.25;0.00;;;;;8.99;100.00;101103.59;4995557;28;52150;-84
2023/01/13 07:06:27;;;;;;;;;4.00;1.00;;;;;9.01;100.00;101103.59;4994751;28;47044;-84
2023/01/13 07:08:53;;;;;;;;;3.00;0.00;;;;;9.01;100.00;101107.03;4996007;28;45662;-84
2023/01/13 07:11:18;;;;;;;;;3.25;0.00;;;;;9.00;100.00;101128.69;4994892;28;45400;-83
2023/01/13 07:16:27;;;;;;;;;0.00;0.00;;;;;8.97;100.00;101138.25;4995152;28;45528;-82
2023/01/13 07:18:53;;;;;;;;;0.00;0.00;;;;;8.96;100.00;101147.78;5029200;28;45373;-82
2023/01/13 07:21:19;;;;;;;;;2.00;0.00;;;;;9.00;100.00;101149.44;4999010;28;56331;-81
2023/01/13 07:23:45;;;;;;;;;2.50;0.00;;;;;9.03;100.00;101140.78;4998239;28;45615;-81
2023/01/13 07:26:10;;;;;;;;;1.00;0.50;;;;;9.06;100.00;101138.09;4997822;28;46511;-81
2023/01/13 07:28:36;;;;;;;;;1.00;0.00;;;;;9.08;100.00;101142.41;4999172;28;45380;-81
2023/01/13 07:31:02;;;;;;;;;0.50;0.00;;;;;9.09;100.00;101135.47;4999457;28;45448;-81
2023/01/13 07:33:27;;;;;;;;;0.00;0.00;;;;;9.12;100.00;101140.63;4998783;28;45326;-81
2023/01/13 07:35:57;;;;;;;;;0.50;0.50;;;;;9.14;100.00;101153.56;4999247;28;45711;-81
2023/01/13 07:38:22;;;;;;;;;1.25;0.00;;;;;9.15;100.00;101150.09;4992886;28;45783;-81
2023/01/13 07:40:48;;;;;;;;;1.25;0.50;;;;;9.15;100.00;101161.31;4998379;28;45626;-82
2023/01/13 07:43:31;;;;;;;;;1.00;0.00;;;;;9.14;100.00;101163.94;4991728;28;58461;-82
2023/01/13 07:45:58;;;;;;;;;2.00;0.00;;;;;9.12;100.00;101145.81;5016764;28;47217;-80
2023/01/13 07:48:24;;;;;;;;;0.75;0.75;;;;;9.11;100.00;101150.13;4997337;28;45361;-80
2023/01/13 07:50:49;;;;;;;;;1.75;0.00;;;;;9.11;100.00;101172.66;5030800;28;45398;-80
2023/01/13 07:53:15;;;;;;;;;1.75;1.00;;;;;9.11;100.00;101170.06;4998110;28;64439;-80
2023/01/13 07:55:43;;;;;;;;;0.00;0.00;;;;;9.11;100.00;101185.63;5029675;28;69661;-80
2023/01/13 07:58:10;;;;;;;;;0.00;0.00;;;;;9.11;100.00;101191.69;4998682;28;45242;-81
2023/01/13 08:00:36;;;;;;;;;2.75;0.00;;;;;9.14;100.00;101198.59;4998776;28;45353;-81
2023/01/13 08:03:02;;;;;;;;;0.00;0.00;;;;;9.15;100.00;101197.69;4997011;28;45444;-81
2023/01/13 08:05:27;;;;;;;;;1.00;0.00;;;;;9.13;100.00;101198.59;4998104;28;46116;-81
2023/01/13 08:07:52;;;;;;;;;0.50;0.00;;;;;9.11;100.00;101203.81;5030045;28;59392;-80
2023/01/13 08:10:18;;;;;;;;;1.00;1.00;;;;;9.09;100.00;101203.00;4997666;28;60564;-81
2023/01/13 08:15:28;;;;;;;;;3.00;0.00;;;;;9.09;100.00;101211.63;4992577;28;45626;-82
2023/01/13 08:17:54;;;;;;;;;2.00;0.75;;;;;9.08;100.00;101214.25;4993499;28;45724;-80
2023/01/13 08:20:19;;;;;;;;;1.00;0.00;;;;;9.10;100.00;101230.66;4977229;28;45702;-80
2023/01/13 08:22:45;;;;;;;;;0.00;0.00;;;;;9.10;100.00;101225.47;4977819;28;63416;-82
2023/01/13 08:25:10;;;;;;;;;2.25;0.00;;;;;9.11;100.00;101227.19;4976403;28;46373;-81
2023/01/13 08:27:35;;;;;;;;;0.00;0.00;;;;;9.11;100.00;101227.19;4992427;28;46233;-82
2023/01/13 08:30:01;;;;;;;;;0.00;0.00;;;;;9.14;100.00;101219.38;4994003;28;45552;-82
2023/01/13 08:32:26;;;;;;;;;4.25;0.00;;;;;9.14;100.00;101214.16;4995625;28;45410;-83
2023/01/13 08:34:51;;;;;;;;;0.75;0.00;;;;;9.17;100.00;101237.47;4992338;28;63748;-83
2023/01/13 08:37:17;;;;;;;;;3.00;0.00;;;;;9.21;100.00;101233.09;4996510;28;45433;-82
2023/01/13 08:39:42;;;;;;;;;1.00;1.00;;;;;9.26;100.00;101236.50;4995520;28;58312;-82
2023/01/13 08:42:07;;;;;;;;;0.00;0.00;;;;;9.24;100.00;101252.09;4997965;28;45564;-82
2023/01/13 08:44:33;;;;;;;;;2.75;1.00;;;;;9.23;100.00;101249.50;4989129;28;63373;-81
2023/01/13 08:46:58;;;;;;;;;2.75;0.00;;;;;9.22;100.00;101251.25;4995820;28;45728;-81
2023/01/13 08:49:24;;;;;;;;;1.50;0.00;;;;;9.21;100.00;101244.38;4995146;28;45846;-83
2023/01/13 08:51:51;;;;;;;;;0.75;0.00;;;;;9.20;100.00;101253.03;4993208;28;45303;-83
2023/01/13 08:54:17;;;;;;;;;3.00;0.00;;;;;9.20;100.00;101247.84;4992120;28;45501;-83
2023/01/13 08:56:43;;;;;;;;;0.00;0.00;;;;;9.21;100.00;101252.16;4994618;28;45841;-83
2023/01/13 08:59:13;;;;;;;;;0.00;0.00;;;;;9.22;100.00;101245.22;4995130;28;45689;-82
2023/01/13 09:01:39;;;;;;;;;0.00;0.00;;;;;9.22;100.00;101245.22;5021169;28;45660;-80
2023/01/13 09:04:06;;;;;;;;;0.00;0.00;;;;;9.25;100.00;101252.97;4994520;28;47208;-81
2023/01/13 09:06:31;;;;;;;;;2.75;0.00;;;;;9.25;100.00;101263.38;4994422;28;45488;-82
2023/01/13 09:08:57;;;;;;;;;0.00;0.00;;;;;9.27;100.00;101253.81;4978215;28;45397;-81
2023/01/13 09:14:21;;;;;;;;;1.00;1.00;;;;;9.34;100.00;101268.38;4987370;28;45903;-84
2023/01/13 09:16:47;;;;;;;;;0.25;0.00;;;;;9.37;100.00;101259.72;4990138;28;45430;-84
2023/01/13 09:19:12;;;;;;;;;1.25;0.00;;;;;9.41;100.00;101263.97;4990443;28;45423;-81
2023/01/13 09:21:37;;;;;;;;;2.00;0.25;;;;;9.42;100.00;101256.16;4992306;28;58935;-82
2023/01/13 09:24:03;;;;;;;;;3.00;1.00;;;;;9.43;100.00;101254.41;4993937;28;46235;-84
2023/01/13 09:26:28;;;;;;;;;2.75;0.00;;;;;9.43;100.00;101265.66;4981039;28;45477;-83
2023/01/13 09:28:54;;;;;;;;;3.75;0.00;;;;;9.40;98.25;101280.47;4991925;28;45905;-83
2023/01/13 09:31:19;;;;;;;;;0.50;0.00;;;;;9.44;100.00;101259.59;4993932;28;45573;-82
2023/01/13 09:36:28;;;;;;;;;0.75;0.00;;;;;9.55;100.00;101289.75;4994186;28;45345;-83
2023/01/13 09:38:54;;;;;;;;;3.00;0.25;;;;;9.61;100.00;101294.84;4991916;28;55915;-81
2023/01/13 09:44:25;;;;;;;;;1.00;0.00;;;;;9.92;100.00;101302.13;4985373;28;45792;-82
2023/01/13 09:46:53;;;;;;;;;4.25;0.00;;;;;10.03;99.62;101305.44;4990677;28;45798;-82
2023/01/13 09:49:22;;;;;;;;;2.00;0.00;;;;;10.13;99.75;101301.75;4977475;28;45503;-82
2023/01/13 09:51:54;;;;;;;;;1.00;0.00;;;;;10.22;100.00;101313.75;4994947;28;45498;-82
2023/01/13 09:54:45;;;;;;;;;2.75;0.00;;;;;10.28;100.00;101319.69;4993667;28;46604;-83
2023/01/13 09:57:13;;;;;;;;;3.00;0.25;;;;;10.32;100.00;101317.06;4978943;28;46006;-83
2023/01/13 09:59:39;;;;;;;;;0.00;0.00;;;;;10.34;100.00;101323.94;4993664;28;45415;-82
2023/01/13 10:02:33;;;;;;;;;6.00;0.50;;;;;10.37;99.22;101320.44;4973822;28;45626;-82
2023/01/13 10:05:04;;;;;;;;;2.50;0.75;;;;;10.39;100.00;101324.72;4992124;28;46363;-83
2023/01/13 10:07:32;;;;;;;;;2.75;1.00;;;;;10.36;99.63;101316.13;4994263;28;46379;-82
2023/01/13 10:09:58;;;;;;;;;1.00;0.25;;;;;10.27;98.64;101336.19;4993222;28;45459;-83
2023/01/13 10:15:14;;;;;;;;;0.25;0.00;;;;;10.23;97.93;101321.53;5010300;28;45496;-84
2023/01/13 10:17:44;;;;;;;;;1.50;0.00;;;;;10.26;98.33;101338.81;4982264;28;45389;-82
2023/01/13 10:20:16;;;;;;;;;2.00;0.00;;;;;10.29;99.46;101338.78;4976814;28;45390;-82
2023/01/13 10:22:41;;;;;;;;;3.00;0.00;;;;;10.34;100.00;101346.53;4978606;28;45425;-82
2023/01/13 10:25:17;;;;;;;;;1.00;0.00;;;;;10.37;100.00;101339.50;4993633;28;46896;-82
2023/01/13 10:27:48;;;;;;;;;2.00;0.00;;;;;10.41;99.71;101350.72;4993900;28;45692;-82
2023/01/13 10:30:16;;;;;;;;;1.75;0.25;;;;;10.44;98.61;101345.47;5019565;28;45421;-82
2023/01/13 10:32:59;;;;;;;;;3.00;0.75;;;;;10.50;99.16;101349.72;4993155;28;45742;-82
2023/01/13 10:35:47;;;;;;;;;0.00;0.00;;;;;10.54;98.16;101352.22;4987514;28;46448;-81
2023/01/13 10:38:23;;;;;;;;;2.00;0.00;;;;;10.73;98.49;101344.03;4984771;28;45874;-82
2023/01/13 10:40:57;;;;;;;;;1.25;0.00;;;;;11.01;97.83;101353.03;4977414;28;45369;-85
2023/01/13 10:43:22;;;;;;;;;1.50;0.00;;;;;11.18;95.39;101363.09;5008015;28;45419;-83
2023/01/13 10:46:06;;;;;;;;;1.00;1.00;;;;;11.31;98.08;101368.00;4976088;28;47434;-84
2023/01/13 10:48:52;;;;;;;;;0.75;0.00;;;;;11.46;98.28;101365.09;4993817;28;45750;-84
2023/01/13 10:51:36;;;;;;;;;0.75;0.00;;;;;11.66;98.02;101367.22;4989531;28;45457;-84
2023/01/13 10:54:22;;;;;;;;;0.00;0.00;;;;;11.73;93.20;101371.41;4992929;28;45416;-84
2023/01/13 10:56:48;;;;;;;;;0.25;0.00;;;;;11.76;94.19;101375.69;4990823;28;45495;-84
2023/01/13 10:59:28;;;;;;;;;0.00;0.00;;;;;11.85;96.97;101387.66;5025383;28;45993;-84
2023/01/13 11:02:02;;;;;;;;;0.50;0.00;;;;;11.74;95.31;101383.56;5024596;28;45683;-84
2023/01/13 11:04:34;;;;;;;;;1.00;0.00;;;;;11.59;92.39;101415.22;4986239;28;45461;-83
2023/01/13 11:07:01;;;;;;;;;0.00;0.00;;;;;11.58;98.05;101403.91;4990117;28;46567;-84
2023/01/13 11:09:29;;;;;;;;;4.00;0.75;;;;;11.59;96.27;101408.25;5011134;28;45847;-84
2023/01/13 11:11:55;;;;;;;;;0.25;0.00;;;;;11.77;97.50;101404.34;5018370;28;45508;-83
2023/01/13 11:14:42;;;;;;;;;1.00;0.00;;;;;12.10;93.51;101404.47;4992332;28;45647;-83
2023/01/13 11:17:11;;;;;;;;;1.50;1.00;;;;;12.16;92.18;101414.75;4993760;28;45667;-83
2023/01/13 11:19:41;;;;;;;;;0.75;0.00;;;;;12.09;93.54;101405.38;4993273;28;45817;-81
2023/01/13 11:22:11;;;;;;;;;0.00;0.00;;;;;12.05;96.54;101403.72;4992409;28;45551;-82
2023/01/13 11:24:41;;;;;;;;;1.00;1.00;;;;;12.22;90.57;101428.53;5024336;28;45522;-83
2023/01/13 11:27:24;;;;;;;;;3.00;0.00;;;;;11.94;90.45;101406.59;4987611;28;45676;-82
2023/01/13 11:30:08;;;;;;;;;2.75;0.00;;;;;11.77;95.71;101404.34;4984974;28;45901;-85
2023/01/13 11:32:39;;;;;;;;;3.00;0.00;;;;;11.58;92.43;101416.09;4989152;28;45574;-82
2023/01/13 11:35:17;;;;;;;;;3.00;1.00;;;;;11.50;95.69;101412.81;4991629;28;45547;-85
2023/01/13 11:37:48;;;;;;;;;1.50;0.00;;;;;11.91;98.59;101411.88;5008381;28;47350;-82
2023/01/13 11:40:23;;;;;;;;;0.00;0.00;;;;;13.01;97.72;101429.97;4990889;28;45737;-83
2023/01/13 11:42:53;;;;;;;;;7.00;0.75;;;;;13.18;96.59;101422.50;4998142;28;45495;-82
2023/01/13 11:45:28;;;;;;;;;0.00;0.00;;;;;13.13;88.84;101437.44;5003092;28;45653;-85
2023/01/13 11:47:57;;;;;;;;;0.00;0.00;;;;;13.05;93.61;101426.34;4981739;28;46172;-84
2023/01/13 11:50:42;;;;;;;;;0.00;0.00;;;;;13.07;89.07;101435.00;4986976;28;45434;-86
2023/01/13 11:53:35;;;;;;;;;2.50;0.00;;;;;13.03;89.28;101436.00;4991771;28;45483;-85
2023/01/13 11:56:15;;;;;;;;;0.25;0.25;;;;;13.01;92.77;101438.66;4988808;28;45399;-84
2023/01/13 11:58:59;;;;;;;;;0.50;0.50;;;;;13.97;92.83;101430.59;4993065;28;46495;-85
2023/01/13 12:01:44;;;;;;;;;2.25;0.75;;;;;14.28;88.77;101428.72;5003090;28;46183;-83
2023/01/13 12:04:23;;;;;;;;;0.50;0.50;;;;;15.15;91.65;101429.19;4991089;28;45416;-82
2023/01/13 12:07:18;;;;;;;;;0.00;0.00;;;;;16.11;87.74;101426.38;4994120;28;45539;-84
2023/01/13 12:09:49;;;;;;;;;0.75;0.00;;;;;16.99;88.15;101426.13;4996205;28;45807;-85
2023/01/13 12:12:26;;;;;;;;;4.00;1.00;;;;;17.36;80.61;101420.94;4996484;28;45512;-86
2023/01/13 12:15:01;;;;;;;;;1.50;0.00;;;;;18.27;79.07;101428.00;4994665;28;45539;-84
2023/01/13 12:17:33;;;;;;;;;0.75;0.75;;;;;17.83;80.55;101416.97;4982739;28;45772;-82
2023/01/13 12:20:07;;;;;;;;;2.00;0.75;;;;;17.82;83.60;101415.28;4990637;28;46296;-83